Votuporanga, Brazil
Current Conditions -  °F | °C
As of 7:00 PM on Monday 24 Nov 2014 (Local Time) from SBSR Reporting Station
Rain Showers Rain Showers  
Wind Chill: 81°   Ceiling: 8000
Heat Index: 82°   Visibility: 6mi
Dew Point: 64°   Wind: 5mph
Humidity: 58%   Direction: 50°NE
Pressure: 29.88"   Gusts: NA
Location:  20.42°S, 49.98°W
Report Text: SBSR 242100Z 05004KT 9999 VCSH SCT025 BKN080 27/18 Q1012
Loading
Personal Weather Stations






























Interactive Weather Map New forecast layout! Learn more

10-Day Weather Forecast

Advertisements
Track Severe Weather on mobile